Flight Track Log - Related Links

Times and Time Zones

All times are in EDT time to prevent confusion due to time zone crossing. See the ASQ5963 flight status page for this flight to view local times or setup timezone preferences in your user account.

Time Position Orientation Groundspeed Altitude Reporting Facility
EDT Latitude Longitude Course Direction KTS MPH feet Rate Location/Type
Sat 05:30:34 PM 38.9833 -77.5500 292° West 230 265 3,200  Level Potomac TRACON
Sat 05:31:34 PM 39.0500 -77.5833 339° North 286 329 6,000 2,900 Climbing Potomac TRACON
Sat 05:32:00 PM 39.1918 -77.5167 North  Level FlightAware Approximate
Sat 05:32:34 PM 39.1333 -77.6000 351° North 304 350 9,000  Level Potomac TRACON
Sat 05:33:00 PM 39.2813 -77.5392 343° North  Level FlightAware Approximate
Sat 05:33:41 PM 39.2256 -77.6253 348° North 322 371 10,700  Level Washington Center
Sat 05:34:00 PM 39.3689 -77.5730 346° North  Level FlightAware Approximate
Sat 05:34:42 PM 39.3039 -77.6836 330° Northwest 381 438 12,400  Level Washington Center
Sat 05:35:00 PM 39.4535 -77.5945 292° West  Level FlightAware Approximate
Sat 05:35:43 PM 39.3922 -77.7533 329° Northwest 376 433 14,400  Level Washington Center
Sat 05:36:41 PM 39.4847 -77.8233 330° Northwest 376 433 16,000 1,550 Climbing Washington Center
Sat 05:37:43 PM 39.5578 -77.9253 313° West 376 433 17,500 984 Climbing Washington Center
Sat 05:38:43 PM 39.5967 -78.0583 291° West 376 433 18,000 219 Climbing Washington Center
Sat 05:40:00 PM 39.6578 -78.2614 291° West 406 467 18,000  Level Cleveland Center
Sat 05:41:00 PM 39.7025 -78.4083 292° West 426 490 18,000  Level Cleveland Center
Sat 05:42:00 PM 39.7469 -78.5553 292° West 431 496 18,000  Level Cleveland Center
Sat 05:43:00 PM 39.7847 -78.6975 289° West 431 496 18,000  Level Cleveland Center
Sat 05:44:00 PM 39.8244 -78.8422 290° West 431 496 18,000  Level Cleveland Center
Sat 05:45:00 PM 39.8594 -78.9550 292° West 426 490 18,000  Level Cleveland Center
Sat 05:46:00 PM 39.9264 -79.1050 300° West 426 490 18,000 -100 Level Cleveland Center
Sat 05:47:00 PM 39.9864 -79.2364 301° West 426 490 17,800 -700 Descending Cleveland Center
Sat 05:48:00 PM 40.0419 -79.3656 299° West 421 484 16,600 -2,000 Descending Cleveland Center
Sat 05:49:00 PM 40.0994 -79.4947 300° West 415 478 13,800 -2,700 Descending Cleveland Center
Sat 05:50:00 PM 40.1589 -79.6078 305° West 403 464 11,200 -1,900 Descending Cleveland Center
Sat 05:51:00 PM 40.2203 -79.7183 306° West 385 443 10,000 -600 Descending Cleveland Center
Sat 05:52:00 PM 40.2794 -79.8347 304° West 380 437 10,000 -100 Level Cleveland Center
Sat 05:53:00 PM 40.3053 -79.9542 286° West 361 415 9,800 -800 Descending Cleveland Center
Sat 05:54:00 PM 40.3203 -80.0631 280° West 295 339 8,400 -1,450 Descending Cleveland Center
Sat 05:55:00 PM 40.3394 -80.1608 284° West 284 327 6,900 -1,600 Descending Cleveland Center
Sat 05:56:00 PM 40.3586 -80.2533 285° West 273 314 5,200 -1,650 Descending Cleveland Center
Sat 05:57:00 PM 40.3753 -80.3297 286° West 258 297 3,600 -1,100 Descending Cleveland Center
Sat 05:58:00 PM 40.4339 -80.3567 341° North 226 260 3,000 -600 Descending Cleveland Center

Login

Don't have an account? Register now (free) for customized features, flight alerts, and more!